Time;durP1;ratioP1;P1;durP2;ratioP2;P2;SDS_P1;SDS_P2;PMS_P1;PMS_P2;Temp;Humidity;BMP_temperature;BMP_pressure;BME280_temperature;BME280_humidity;BME280_pressure;Samples;Min_cycle;Max_cycle;Signal;HPM_P1;HPM_P2
2022/06/09 00:00:27;;;;;;;0.00;0.00;;;15.60;99.90;;;;;;4970078;28;20034;-67
2022/06/09 00:02:58;;;;;;;2.20;0.57;;;15.60;99.90;;;;;;4970900;28;20486;-67
2022/06/09 00:05:25;;;;;;;0.10;0.10;;;15.70;99.90;;;;;;4971008;28;20034;-67
2022/06/09 00:07:52;;;;;;;0.00;0.00;;;15.70;99.90;;;;;;4971250;28;20046;-67
2022/06/09 00:10:32;;;;;;;0.47;0.47;;;15.70;99.90;;;;;;4970210;28;20596;-67
2022/06/09 00:12:59;;;;;;;0.00;0.00;;;15.80;99.90;;;;;;4970683;28;20091;-67
2022/06/09 00:15:27;;;;;;;0.10;0.10;;;15.80;99.90;;;;;;4970696;28;20034;-67
2022/06/09 00:17:53;;;;;;;0.00;0.00;;;15.70;99.90;;;;;;4970665;28;20319;-67
2022/06/09 00:20:19;;;;;;;0.00;0.00;;;15.70;99.90;;;;;;4970016;28;20517;-66
2022/06/09 00:22:45;;;;;;;0.00;0.00;;;15.70;99.90;;;;;;4970344;28;20030;-67
2022/06/09 00:25:12;;;;;;;0.00;0.00;;;15.70;99.90;;;;;;4970164;28;20105;-67
2022/06/09 00:27:38;;;;;;;0.30;0.20;;;15.70;99.90;;;;;;4970382;28;20094;-67
2022/06/09 00:30:06;;;;;;;0.00;0.00;;;15.70;99.90;;;;;;4971511;28;20047;-67
2022/06/09 00:32:32;;;;;;;0.05;0.03;;;15.60;99.90;;;;;;4970234;28;20035;-67
2022/06/09 00:34:58;;;;;;;0.10;0.10;;;15.60;99.90;;;;;;4970696;28;20090;-65
2022/06/09 00:37:24;;;;;;;0.90;0.55;;;15.70;99.90;;;;;;4971759;28;20073;-66
2022/06/09 00:39:49;;;;;;;1.40;0.40;;;15.70;99.90;;;;;;4985713;28;20446;-66
2022/06/09 00:42:16;;;;;;;0.00;0.00;;;15.70;99.90;;;;;;4970110;28;20038;-66
2022/06/09 00:44:43;;;;;;;0.00;0.00;;;15.70;99.90;;;;;;4970342;28;20019;-66
2022/06/09 00:47:30;;;;;;;0.10;0.10;;;15.60;99.90;;;;;;4969993;28;20042;-66
2022/06/09 00:50:26;;;;;;;0.10;0.10;;;15.60;99.90;;;;;;4970789;28;20391;-66
2022/06/09 00:53:00;;;;;;;0.95;0.20;;;15.60;99.90;;;;;;4968930;28;20043;-66
2022/06/09 00:55:33;;;;;;;0.20;0.20;;;15.60;99.90;;;;;;4970644;28;20038;-66
2022/06/09 00:58:07;;;;;;;0.08;0.08;;;15.50;99.90;;;;;;4970522;28;20060;-67
2022/06/09 01:01:01;;;;;;;0.00;0.00;;;15.40;99.90;;;;;;4970079;28;20062;-67
2022/06/09 01:03:35;;;;;;;0.00;0.00;;;15.50;99.90;;;;;;4969898;28;20034;-66
2022/06/09 01:06:07;;;;;;;0.00;0.00;;;15.40;99.90;;;;;;4960447;28;20027;-66
2022/06/09 01:08:38;;;;;;;0.30;0.30;;;15.40;99.90;;;;;;4968864;28;20023;-66
2022/06/09 01:11:05;;;;;;;0.28;0.28;;;15.40;99.90;;;;;;4970240;28;20116;-66
2022/06/09 01:13:32;;;;;;;0.30;0.30;;;15.40;99.90;;;;;;4970838;28;20454;-67
2022/06/09 01:16:57;;;;;;;0.00;0.00;;;15.40;99.90;;;;;;4971508;28;20074;-66
2022/06/09 01:20:08;;;;;;;0.10;0.10;;;15.40;99.90;;;;;;4910792;29;20351;-66
2022/06/09 01:23:35;;;;;;;0.00;0.00;;;15.30;99.90;;;;;;4897441;29;20077;-67
2022/06/09 01:26:28;;;;;;;0.00;0.00;;;15.30;99.90;;;;;;4911109;29;20040;-67
2022/06/09 01:29:40;;;;;;;0.45;0.45;;;15.20;99.90;;;;;;4910355;29;20047;-67
2022/06/09 01:32:27;;;;;;;0.20;0.20;;;15.10;99.90;;;;;;4896200;29;20145;-67
2022/06/09 01:35:11;;;;;;;0.10;0.10;;;15.10;99.90;;;;;;4896108;29;20050;-67
2022/06/09 01:37:48;;;;;;;0.08;0.08;;;15.10;99.90;;;;;;4896927;29;20404;-67
2022/06/09 01:40:17;;;;;;;0.00;0.00;;;15.10;99.90;;;;;;4899520;29;20107;-66
2022/06/09 01:42:50;;;;;;;0.00;0.00;;;15.10;99.90;;;;;;4917929;29;20219;-67
2022/06/09 01:45:44;;;;;;;0.05;0.05;;;15.00;99.90;;;;;;4918184;29;20035;-66
2022/06/09 01:48:14;;;;;;;0.00;0.00;;;15.00;99.90;;;;;;4933107;29;20039;-67
2022/06/09 01:51:14;;;;;;;4.38;2.45;;;15.00;99.90;;;;;;4970689;23;20570;-69
2022/06/09 01:53:48;;;;;;;0.00;0.00;;;15.10;99.90;;;;;;4935841;29;20075;-69
2022/06/09 01:56:29;;;;;;;0.10;0.10;;;15.10;99.90;;;;;;4934709;29;20042;-68
2022/06/09 01:59:38;;;;;;;0.75;0.75;;;15.10;99.90;;;;;;4933813;29;20611;-68
2022/06/09 02:02:16;;;;;;;0.00;0.00;;;14.90;99.90;;;;;;4933642;29;20075;-69
2022/06/09 02:04:51;;;;;;;0.85;0.60;;;15.10;99.90;;;;;;4934558;29;20063;-68
2022/06/09 02:07:19;;;;;;;0.20;0.20;;;15.00;99.90;;;;;;4934494;29;20027;-69
2022/06/09 02:09:45;;;;;;;0.00;0.00;;;15.00;99.90;;;;;;4933938;29;20034;-69
2022/06/09 02:12:18;;;;;;;0.00;0.00;;;14.90;99.90;;;;;;4935599;29;20031;-69
2022/06/09 02:14:52;;;;;;;0.05;0.05;;;15.00;99.90;;;;;;4940000;29;20046;-69
2022/06/09 02:17:19;;;;;;;0.30;0.30;;;15.10;99.90;;;;;;4954486;29;20027;-69
2022/06/09 02:19:49;;;;;;;0.10;0.10;;;15.20;99.90;;;;;;4952655;29;20161;-68
2022/06/09 02:22:15;;;;;;;0.63;0.43;;;15.20;99.90;;;;;;4953154;29;20054;-69
2022/06/09 02:24:41;;;;;;;0.00;0.00;;;15.20;99.90;;;;;;4953254;29;20027;-69
2022/06/09 02:27:07;;;;;;;0.00;0.00;;;15.10;99.90;;;;;;4953206;29;20082;-68
2022/06/09 02:29:34;;;;;;;0.00;0.00;;;15.20;99.90;;;;;;4952646;29;20107;-68
2022/06/09 02:32:00;;;;;;;0.00;0.00;;;15.10;99.90;;;;;;4953369;29;20481;-68
2022/06/09 02:34:26;;;;;;;0.25;0.25;;;15.20;99.90;;;;;;4954122;29;20114;-69
2022/06/09 02:36:51;;;;;;;0.00;0.00;;;15.10;99.90;;;;;;4954390;29;20441;-69
2022/06/09 02:39:17;;;;;;;0.25;0.20;;;15.10;99.90;;;;;;4953376;29;20615;-69
2022/06/09 02:41:43;;;;;;;1.83;0.30;;;15.10;99.90;;;;;;4952939;29;20118;-68
2022/06/09 02:44:09;;;;;;;0.00;0.00;;;15.10;99.90;;;;;;4952959;29;20038;-68
2022/06/09 02:46:35;;;;;;;0.20;0.20;;;15.00;99.90;;;;;;4954170;29;20046;-68
2022/06/09 02:49:01;;;;;;;0.00;0.00;;;15.00;99.90;;;;;;4952628;28;20074;-69
2022/06/09 02:51:32;;;;;;;0.10;0.10;;;15.10;99.90;;;;;;4954164;29;20032;-70
2022/06/09 02:54:03;;;;;;;0.00;0.00;;;15.10;99.90;;;;;;4953899;29;20027;-69
2022/06/09 02:56:30;;;;;;;0.20;0.20;;;15.20;99.90;;;;;;4954307;28;20038;-69
2022/06/09 02:58:57;;;;;;;0.50;0.32;;;15.20;99.90;;;;;;4936214;29;20031;-70
2022/06/09 03:01:24;;;;;;;1.08;0.55;;;15.10;99.90;;;;;;4953832;29;20031;-69
2022/06/09 03:03:50;;;;;;;0.50;0.50;;;15.10;99.90;;;;;;4943660;29;20483;-69
2022/06/09 03:06:16;;;;;;;0.25;0.25;;;15.10;99.90;;;;;;4953015;28;20034;-70
2022/06/09 03:08:43;;;;;;;0.00;0.00;;;15.20;99.90;;;;;;4936711;29;20032;-69
2022/06/09 03:11:10;;;;;;;0.00;0.00;;;15.10;99.90;;;;;;4937935;29;20114;-69
2022/06/09 03:13:38;;;;;;;0.10;0.10;;;15.00;99.90;;;;;;4953342;29;20023;-69
2022/06/09 03:16:05;;;;;;;0.00;0.00;;;14.90;99.90;;;;;;4944914;29;20046;-68
2022/06/09 03:18:32;;;;;;;0.73;0.73;;;14.90;99.90;;;;;;4951483;29;20073;-68
2022/06/09 03:20:58;;;;;;;0.00;0.00;;;15.00;99.90;;;;;;4953038;29;20476;-68
2022/06/09 03:23:24;;;;;;;0.00;0.00;;;15.10;99.90;;;;;;4953184;29;20511;-69
2022/06/09 03:25:49;;;;;;;0.00;0.00;;;15.00;99.90;;;;;;4936055;29;20040;-69
2022/06/09 03:28:15;;;;;;;0.00;0.00;;;15.00;99.90;;;;;;4934009;29;20027;-68
2022/06/09 03:30:42;;;;;;;0.00;0.00;;;15.00;99.90;;;;;;4932059;29;20027;-69
2022/06/09 03:33:08;;;;;;;0.08;0.08;;;15.00;99.90;;;;;;4934162;29;20603;-68
2022/06/09 03:35:34;;;;;;;0.20;0.20;;;15.20;99.90;;;;;;4932344;29;20038;-68
2022/06/09 03:38:00;;;;;;;1.55;0.63;;;15.10;99.90;;;;;;4917090;29;20032;-70
2022/06/09 03:40:28;;;;;;;0.13;0.13;;;15.00;99.90;;;;;;4933348;29;20035;-70
2022/06/09 03:42:56;;;;;;;0.00;0.00;;;15.00;99.90;;;;;;4949572;29;20027;-69
2022/06/09 03:45:22;;;;;;;0.00;0.00;;;15.10;99.90;;;;;;4953061;29;20041;-69
2022/06/09 03:47:49;;;;;;;0.15;0.15;;;15.10;99.90;;;;;;4921476;28;20048;-71
2022/06/09 03:50:19;;;;;;;0.15;0.15;;;15.00;99.90;;;;;;4941319;29;20174;-70
2022/06/09 03:52:45;;;;;;;0.00;0.00;;;14.90;99.90;;;;;;4939909;29;20524;-70
2022/06/09 03:55:11;;;;;;;1.17;0.57;;;14.90;99.90;;;;;;4933214;29;20131;-70
2022/06/09 03:57:37;;;;;;;0.13;0.13;;;14.90;99.90;;;;;;4945889;29;20041;-72
2022/06/09 04:00:06;;;;;;;0.00;0.00;;;15.00;99.90;;;;;;4951936;28;20110;-72
2022/06/09 04:02:32;;;;;;;0.60;0.60;;;15.00;99.90;;;;;;4951297;29;20059;-70
2022/06/09 04:04:59;;;;;;;1.10;0.57;;;15.00;99.90;;;;;;4952220;29;20027;-70
2022/06/09 04:07:25;;;;;;;0.13;0.13;;;15.10;99.90;;;;;;4950897;29;20045;-72
2022/06/09 04:09:51;;;;;;;0.08;0.08;;;15.00;99.90;;;;;;4950120;29;20042;-69
2022/06/09 04:12:16;;;;;;;0.00;0.00;;;14.90;99.90;;;;;;4951912;29;20027;-70
2022/06/09 04:14:42;;;;;;;0.63;0.63;;;14.80;99.90;;;;;;4948015;29;20087;-70
2022/06/09 04:17:11;;;;;;;0.00;0.00;;;14.90;99.90;;;;;;4949566;29;20027;-70
2022/06/09 04:19:38;;;;;;;0.10;0.10;;;14.70;99.90;;;;;;4950117;29;20023;-70
2022/06/09 04:22:05;;;;;;;0.10;0.10;;;14.80;99.90;;;;;;4950782;29;20066;-70
2022/06/09 04:24:31;;;;;;;0.05;0.05;;;14.90;99.90;;;;;;4952257;28;20039;-71
2022/06/09 04:26:57;;;;;;;0.20;0.20;;;15.10;99.90;;;;;;4952102;29;20624;-71
2022/06/09 04:29:22;;;;;;;0.00;0.00;;;15.20;99.90;;;;;;4950205;29;20065;-71
2022/06/09 04:31:48;;;;;;;0.20;0.20;;;15.30;99.90;;;;;;4952252;29;20085;-70
2022/06/09 04:34:14;;;;;;;0.10;0.10;;;15.30;99.90;;;;;;4950519;29;20031;-74
2022/06/09 04:36:41;;;;;;;0.17;0.17;;;15.30;99.90;;;;;;4951960;29;20463;-75
2022/06/09 04:39:08;;;;;;;1.17;0.90;;;15.20;99.90;;;;;;4951124;29;20087;-76
2022/06/09 04:41:37;;;;;;;0.00;0.00;;;15.10;99.90;;;;;;4951807;29;20035;-76
2022/06/09 04:44:06;;;;;;;0.73;0.47;;;15.00;99.90;;;;;;4950751;29;20035;-78
2022/06/09 04:46:32;;;;;;;1.65;0.68;;;15.00;99.90;;;;;;4952186;29;20117;-75
2022/06/09 04:48:58;;;;;;;0.20;0.20;;;15.10;99.90;;;;;;4933931;29;20437;-77
2022/06/09 04:51:28;;;;;;;5.60;1.00;;;15.00;99.90;;;;;;4951906;29;20023;-77
2022/06/09 04:53:54;;;;;;;25.30;0.77;;;14.90;99.90;;;;;;4951684;29;20038;-78
2022/06/09 04:56:21;;;;;;;0.00;0.00;;;14.90;99.90;;;;;;4934417;29;20027;-75
2022/06/09 04:58:48;;;;;;;0.45;0.45;;;14.80;99.90;;;;;;4949932;29;20035;-77
2022/06/09 05:01:31;;;;;;;0.10;0.10;;;14.80;99.90;;;;;;4950629;29;20106;-77
2022/06/09 05:03:59;;;;;;;0.00;0.00;;;14.90;99.90;;;;;;4935051;29;20110;-78
2022/06/09 05:06:26;;;;;;;0.20;0.20;;;14.90;99.90;;;;;;4951629;29;20058;-78
2022/06/09 05:08:55;;;;;;;0.20;0.20;;;14.90;99.90;;;;;;4949421;29;20484;-77
2022/06/09 05:11:23;;;;;;;0.65;0.65;;;15.00;99.90;;;;;;4950800;28;20118;-77
2022/06/09 05:13:52;;;;;;;0.68;0.65;;;15.00;99.90;;;;;;4956850;28;20038;-73
2022/06/09 05:16:19;;;;;;;0.00;0.00;;;15.10;99.90;;;;;;4943269;29;20392;-76
2022/06/09 05:18:45;;;;;;;0.00;0.00;;;15.00;99.90;;;;;;4944796;29;20027;-78
2022/06/09 05:21:10;;;;;;;0.00;0.00;;;15.10;99.90;;;;;;4951098;29;20039;-76
2022/06/09 05:23:38;;;;;;;0.30;0.30;;;15.10;99.90;;;;;;4947960;28;20039;-78
2022/06/09 05:26:06;;;;;;;0.00;0.00;;;15.20;99.90;;;;;;4935026;29;20041;-78
2022/06/09 05:28:33;;;;;;;0.10;0.10;;;15.20;99.90;;;;;;4934720;29;20095;-75
2022/06/09 05:30:59;;;;;;;0.28;0.20;;;15.20;99.90;;;;;;4935957;29;20615;-76
2022/06/09 05:33:26;;;;;;;0.15;0.15;;;15.20;99.90;;;;;;4934548;29;20138;-76
2022/06/09 05:35:52;;;;;;;1.45;0.45;;;15.30;99.90;;;;;;4927416;29;20031;-76
2022/06/09 05:46:34;;;;;;;0.10;0.10;;;15.60;99.90;;;;;;4954651;29;20035;-74
2022/06/09 05:49:00;;;;;;;0.00;0.00;;;15.60;99.90;;;;;;4953866;29;20047;-76
2022/06/09 05:51:26;;;;;;;0.00;0.00;;;15.60;99.90;;;;;;4954683;29;20086;-74
2022/06/09 05:53:52;;;;;;;0.00;0.00;;;15.70;99.90;;;;;;4943025;29;20039;-76
2022/06/09 05:56:19;;;;;;;0.88;0.40;;;15.70;99.90;;;;;;4933973;29;20023;-77
2022/06/09 05:58:46;;;;;;;3.30;1.40;;;15.80;99.90;;;;;;4933316;29;20027;-76
2022/06/09 06:01:13;;;;;;;0.55;0.40;;;15.70;99.90;;;;;;4923708;29;20118;-77
2022/06/09 06:03:41;;;;;;;0.00;0.00;;;15.70;99.90;;;;;;4951130;29;20027;-76
2022/06/09 06:08:51;;;;;;;1.85;1.70;;;15.60;99.90;;;;;;4952274;29;20823;-78
2022/06/09 06:11:17;;;;;;;0.00;0.00;;;15.60;99.90;;;;;;4953214;29;20070;-76
2022/06/09 06:13:45;;;;;;;3.38;1.42;;;15.60;99.90;;;;;;4952907;29;20027;-77
2022/06/09 06:16:11;;;;;;;0.15;0.15;;;15.60;99.90;;;;;;4954520;29;20031;-77
2022/06/09 06:18:37;;;;;;;0.00;0.00;;;15.70;99.90;;;;;;4951997;29;20437;-76
2022/06/09 06:21:03;;;;;;;0.25;0.22;;;15.60;99.90;;;;;;4948599;29;20641;-76
2022/06/09 06:23:29;;;;;;;0.32;0.28;;;15.80;99.90;;;;;;4917010;29;20028;-76
2022/06/09 06:25:56;;;;;;;0.10;0.05;;;15.90;99.90;;;;;;4933957;29;20141;-77
2022/06/09 06:28:24;;;;;;;0.00;0.00;;;15.80;99.90;;;;;;4933937;29;20111;-76
2022/06/09 06:30:50;;;;;;;0.63;0.63;;;15.80;99.90;;;;;;4933131;29;20040;-76
2022/06/09 06:33:17;;;;;;;0.90;0.63;;;15.80;99.90;;;;;;4935085;29;20496;-76
2022/06/09 06:35:43;;;;;;;0.00;0.00;;;15.80;99.90;;;;;;4933756;29;20091;-75
2022/06/09 06:38:09;;;;;;;0.00;0.00;;;15.80;99.90;;;;;;4934641;29;20027;-77
2022/06/09 06:40:35;;;;;;;0.88;0.88;;;15.90;99.90;;;;;;4932748;29;20397;-76
2022/06/09 06:43:02;;;;;;;0.15;0.15;;;15.90;99.90;;;;;;4934717;29;20552;-76
2022/06/09 06:45:28;;;;;;;0.00;0.00;;;15.80;99.90;;;;;;4935119;29;20039;-76
2022/06/09 06:47:56;;;;;;;0.00;0.00;;;15.80;99.90;;;;;;4938698;29;20119;-76
2022/06/09 06:50:22;;;;;;;0.00;0.00;;;15.80;99.90;;;;;;4952950;29;20046;-75
2022/06/09 06:52:48;;;;;;;0.08;0.08;;;15.60;99.90;;;;;;4952519;29;20031;-76
2022/06/09 06:55:18;;;;;;;0.43;0.43;;;15.70;99.90;;;;;;4952511;29;20019;-79
2022/06/09 06:57:44;;;;;;;0.00;0.00;;;15.60;99.90;;;;;;4953648;29;20078;-79
2022/06/09 07:00:13;;;;;;;0.00;0.00;;;15.30;99.90;;;;;;4951303;29;20035;-79
2022/06/09 07:02:41;;;;;;;0.00;0.00;;;15.30;99.90;;;;;;4952009;29;20724;-79
2022/06/09 07:05:08;;;;;;;0.00;0.00;;;15.30;99.90;;;;;;4951634;29;20094;-78
2022/06/09 07:07:35;;;;;;;0.30;0.30;;;15.30;99.90;;;;;;4951765;29;20411;-78
2022/06/09 07:10:03;;;;;;;0.00;0.00;;;15.30;99.90;;;;;;4933916;29;20438;-79
2022/06/09 07:12:30;;;;;;;0.00;0.00;;;15.30;99.90;;;;;;4951374;29;20111;-77
2022/06/09 07:14:56;;;;;;;0.45;0.38;;;15.30;99.90;;;;;;4950629;29;20034;-77
2022/06/09 07:17:21;;;;;;;0.00;0.00;;;15.30;99.90;;;;;;4934160;29;20027;-78
2022/06/09 07:19:47;;;;;;;0.20;0.20;;;15.30;99.90;;;;;;4950795;29;20118;-76
2022/06/09 07:22:13;;;;;;;0.00;0.00;;;15.50;99.90;;;;;;4951956;29;20030;-77
2022/06/09 07:24:39;;;;;;;0.55;0.55;;;15.50;99.90;;;;;;4953033;29;20137;-77
2022/06/09 07:27:05;;;;;;;0.17;0.17;;;15.30;99.90;;;;;;4953136;29;20043;-78
2022/06/09 07:29:32;;;;;;;0.00;0.00;;;15.30;99.90;;;;;;4951140;29;20496;-78
2022/06/09 07:31:58;;;;;;;1.20;1.10;;;15.20;99.90;;;;;;4936288;29;20043;-78
2022/06/09 07:34:24;;;;;;;0.15;0.15;;;15.20;99.90;;;;;;4952341;28;20031;-78
2022/06/09 07:36:50;;;;;;;0.38;0.38;;;15.30;99.90;;;;;;4951803;29;20045;-78
2022/06/09 07:39:18;;;;;;;0.00;0.00;;;15.40;99.90;;;;;;4951131;29;20035;-78
2022/06/09 07:41:43;;;;;;;0.00;0.00;;;15.30;99.90;;;;;;4951718;29;20038;-78
2022/06/09 07:44:10;;;;;;;0.70;0.70;;;15.30;99.90;;;;;;4951937;29;20031;-78
2022/06/09 07:46:36;;;;;;;0.13;0.10;;;15.50;99.90;;;;;;4951649;29;20035;-77
2022/06/09 07:49:03;;;;;;;0.00;0.00;;;15.60;99.90;;;;;;4965341;23;20026;-79
2022/06/09 07:51:30;;;;;;;0.00;0.00;;;15.50;99.90;;;;;;4945994;28;20507;-80
2022/06/09 07:53:57;;;;;;;1.65;0.95;;;15.40;99.90;;;;;;4952858;29;20035;-80
2022/06/09 07:56:23;;;;;;;0.10;0.10;;;15.60;99.90;;;;;;4952272;28;20510;-81
2022/06/09 07:58:49;;;;;;;1.98;1.00;;;15.70;99.90;;;;;;4925687;29;20082;-80
2022/06/09 08:01:17;;;;;;;0.00;0.00;;;15.80;99.90;;;;;;4935967;28;20039;-80
2022/06/09 08:03:43;;;;;;;0.08;0.08;;;15.90;99.90;;;;;;4936084;28;20400;-80
2022/06/09 08:06:10;;;;;;;0.15;0.15;;;16.10;99.90;;;;;;4952865;28;20122;-79
2022/06/09 08:08:35;;;;;;;1.08;0.22;;;16.20;99.90;;;;;;4935510;29;20030;-80
2022/06/09 08:11:01;;;;;;;0.30;0.30;;;16.10;99.90;;;;;;4952384;29;20480;-81
2022/06/09 08:13:27;;;;;;;0.00;0.00;;;16.20;99.90;;;;;;4952252;29;20035;-81
2022/06/09 08:15:53;;;;;;;0.00;0.00;;;16.20;99.90;;;;;;4944343;29;20027;-81
2022/06/09 08:18:20;;;;;;;14.05;1.25;;;16.10;99.90;;;;;;4923036;29;20484;-79
2022/06/09 08:20:46;;;;;;;1.65;0.93;;;16.20;99.90;;;;;;4950723;29;20031;-79
2022/06/09 08:23:17;;;;;;;0.00;0.00;;;16.20;99.90;;;;;;4951928;28;20042;-80
2022/06/09 08:25:46;;;;;;;0.00;0.00;;;16.30;99.90;;;;;;4952355;28;20123;-79
2022/06/09 08:28:17;;;;;;;0.22;0.22;;;16.20;99.90;;;;;;4951351;29;20476;-80
2022/06/09 08:30:43;;;;;;;8.52;3.40;;;16.50;99.90;;;;;;4949856;28;20035;-80
2022/06/09 08:33:08;;;;;;;0.45;0.45;;;16.60;99.90;;;;;;4934471;29;20046;-82
2022/06/09 08:35:36;;;;;;;0.00;0.00;;;16.60;99.90;;;;;;4934856;29;20027;-80
2022/06/09 08:38:04;;;;;;;1.05;0.52;;;16.50;99.90;;;;;;4952257;28;20490;-80
2022/06/09 08:40:51;;;;;;;0.13;0.13;;;16.50;99.90;;;;;;4953201;29;20027;-80
2022/06/09 08:43:42;;;;;;;0.10;0.10;;;16.60;99.90;;;;;;4952654;29;20063;-80
2022/06/09 08:46:26;;;;;;;0.00;0.00;;;16.60;99.90;;;;;;4951925;28;20043;-81
2022/06/09 08:48:56;;;;;;;0.00;0.00;;;16.50;99.90;;;;;;4955217;28;20550;-80
2022/06/09 08:51:47;;;;;;;0.57;0.57;;;16.20;99.90;;;;;;4955975;28;20042;-80
2022/06/09 08:54:27;;;;;;;0.17;0.17;;;16.10;99.90;;;;;;4955120;29;20059;-81
2022/06/09 08:56:54;;;;;;;0.00;0.00;;;16.20;99.90;;;;;;4954712;29;20115;-81
2022/06/09 08:59:28;;;;;;;0.03;0.03;;;16.40;99.90;;;;;;4954143;28;20027;-82
2022/06/09 09:02:21;;;;;;;0.00;0.00;;;16.50;99.90;;;;;;4954749;29;20404;-81
2022/06/09 09:04:53;;;;;;;0.08;0.00;;;16.50;99.90;;;;;;4955488;29;20059;-82
2022/06/09 09:07:30;;;;;;;0.00;0.00;;;16.70;99.90;;;;;;4955048;29;20138;-81
2022/06/09 09:10:11;;;;;;;0.00;0.00;;;16.60;99.90;;;;;;4955091;29;20031;-81
2022/06/09 09:12:54;;;;;;;0.00;0.00;;;16.60;99.90;;;;;;4954966;29;20118;-81
2022/06/09 09:15:41;;;;;;;0.00;0.00;;;16.90;99.90;;;;;;4955811;28;20400;-81
2022/06/09 09:18:38;;;;;;;0.00;0.00;;;17.00;99.90;;;;;;4939211;29;20062;-82
2022/06/09 09:21:27;;;;;;;0.10;0.10;;;16.90;99.90;;;;;;4955829;29;20039;-81
2022/06/09 09:25:08;;;;;;;2.47;2.28;;;16.70;99.90;;;;;;4939175;29;20035;-80
2022/06/09 09:28:01;;;;;;;0.00;0.00;;;16.70;99.90;;;;;;4896075;29;20036;-81
2022/06/09 09:30:36;;;;;;;0.20;0.20;;;16.70;99.90;;;;;;4895230;29;20041;-81
2022/06/09 09:33:02;;;;;;;0.00;0.00;;;16.80;99.90;;;;;;4895447;29;20120;-81
2022/06/09 09:35:40;;;;;;;0.32;0.32;;;17.00;99.90;;;;;;4880387;29;20044;-81
2022/06/09 09:38:09;;;;;;;0.00;0.00;;;17.00;99.90;;;;;;4896259;29;20037;-82
2022/06/09 09:40:48;;;;;;;0.17;0.17;;;16.90;99.90;;;;;;4895240;29;20116;-82
2022/06/09 09:43:23;;;;;;;3.75;0.35;;;17.10;99.90;;;;;;4895457;29;20421;-82
2022/06/09 09:45:55;;;;;;;0.50;0.25;;;17.30;99.90;;;;;;4895581;29;20461;-81
2022/06/09 09:48:21;;;;;;;0.85;0.65;;;17.40;99.90;;;;;;4898029;29;20524;-82
2022/06/09 09:51:00;;;;;;;0.22;0.15;;;17.40;99.90;;;;;;4896632;29;20061;-81
2022/06/09 09:53:33;;;;;;;0.10;0.10;;;17.10;99.90;;;;;;4895011;29;20054;-82
2022/06/09 09:56:05;;;;;;;0.00;0.00;;;17.20;99.90;;;;;;4895419;29;20204;-82
2022/06/09 09:58:46;;;;;;;0.00;0.00;;;17.50;99.90;;;;;;4923489;29;20039;-82
2022/06/09 10:08:35;;;;;;;0.00;0.00;;;17.80;99.90;;;;;;4935882;29;20071;-83
2022/06/09 10:10:25;;;;;;;6.28;0.68;;;17.70;99.90;;;;;;4920907;29;20031;-81
2022/06/09 10:12:51;;;;;;;1.30;1.05;;;17.70;99.90;;;;;;4919332;29;20057;-81
2022/06/09 10:15:21;;;;;;;0.10;0.10;;;17.40;99.90;;;;;;4938250;29;20028;-82
2022/06/09 10:18:03;;;;;;;0.00;0.00;;;17.30;99.90;;;;;;4937637;29;20034;-80
2022/06/09 10:20:34;;;;;;;0.20;0.20;;;17.40;99.90;;;;;;4952490;28;20038;-79
2022/06/09 10:23:06;;;;;;;0.08;0.08;;;17.30;99.90;;;;;;4954400;29;20031;-79
2022/06/09 10:26:21;;;;;;;0.10;0.10;;;17.40;99.90;;;;;;4954363;28;20107;-76
2022/06/09 10:29:22;;;;;;;0.45;0.45;;;17.60;99.90;;;;;;4953678;29;20031;-79
2022/06/09 10:32:28;;;;;;;0.00;0.00;;;18.00;99.90;;;;;;4954562;29;20074;-76
2022/06/09 10:35:13;;;;;;;0.35;0.35;;;18.40;99.90;;;;;;4937828;29;20086;-76
2022/06/09 10:37:56;;;;;;;0.32;0.28;;;18.80;99.90;;;;;;4950414;28;20106;-75
2022/06/09 10:40:44;;;;;;;0.00;0.00;;;18.90;99.90;;;;;;4927689;29;20567;-77
2022/06/09 10:43:46;;;;;;;0.00;0.00;;;18.60;99.90;;;;;;4953890;29;20053;-78
2022/06/09 10:46:37;;;;;;;0.00;0.00;;;18.40;99.90;;;;;;4937568;29;20393;-78
2022/06/09 10:55:48;;;;;;;0.05;0.05;;;18.50;99.90;;;;;;4954135;29;20101;-77
2022/06/09 10:58:39;;;;;;;0.22;0.22;;;18.30;99.90;;;;;;4939143;29;20035;-76
2022/06/09 11:01:05;;;;;;;0.10;0.10;;;18.50;99.90;;;;;;4920883;29;20546;-76
2022/06/09 11:03:46;;;;;;;0.00;0.00;;;18.50;99.90;;;;;;4936255;29;20039;-76
2022/06/09 11:06:28;;;;;;;0.00;0.00;;;18.50;99.90;;;;;;4936064;29;20054;-76
2022/06/09 11:09:20;;;;;;;1.25;0.57;;;18.70;99.90;;;;;;4935833;29;20046;-76
2022/06/09 11:12:03;;;;;;;0.30;0.30;;;19.10;99.90;;;;;;4953538;28;20512;-76
2022/06/09 11:15:20;;;;;;;0.00;0.00;;;19.40;99.90;;;;;;4953370;28;20066;-77
2022/06/09 11:17:57;;;;;;;0.15;0.15;;;19.80;99.90;;;;;;4936803;29;20036;-76
2022/06/09 11:20:36;;;;;;;2.25;0.65;;;19.80;99.90;;;;;;4952701;29;20415;-76
2022/06/09 11:24:08;;;;;;;0.10;0.10;;;19.60;99.90;;;;;;4920352;29;20039;-77
2022/06/09 11:26:50;;;;;;;0.00;0.00;;;19.50;99.90;;;;;;4921967;28;20122;-77
2022/06/09 11:29:47;;;;;;;0.00;0.00;;;19.40;99.90;;;;;;4936949;29;20054;-78
2022/06/09 11:32:47;;;;;;;0.00;0.00;;;19.50;99.90;;;;;;4954702;29;20031;-77
2022/06/09 11:36:03;;;;;;;1.55;1.17;;;19.50;99.90;;;;;;4938405;29;20070;-77
2022/06/09 11:38:44;;;;;;;0.30;0.30;;;19.70;99.90;;;;;;4952631;29;20042;-77
2022/06/09 11:41:32;;;;;;;;;;;20.00;99.90;;;;;;4935981;29;20090;-77
2022/06/09 11:44:25;;;;;;;0.57;0.57;;;20.10;99.90;;;;;;4953316;29;19914;-77
2022/06/09 11:46:54;;;;;;;0.00;0.00;;;20.00;99.90;;;;;;4952799;29;20035;-76
2022/06/09 11:49:30;;;;;;;0.00;0.00;;;20.00;99.90;;;;;;4934669;29;20062;-77
2022/06/09 11:51:59;;;;;;;0.00;0.00;;;20.10;99.90;;;;;;4932348;29;20114;-77
2022/06/09 11:54:50;;;;;;;0.05;0.03;;;20.10;99.90;;;;;;4935757;29;20115;-77
2022/06/09 11:57:49;;;;;;;0.00;0.00;;;20.30;99.90;;;;;;4935250;29;20035;-76
2022/06/09 12:00:27;;;;;;;0.05;0.05;;;20.80;99.90;;;;;;4954466;28;20044;-77
2022/06/09 12:03:14;;;;;;;0.10;0.10;;;21.50;99.70;;;;;;4952348;28;20082;-76
2022/06/09 12:06:14;;;;;;;0.00;0.00;;;21.70;96.70;;;;;;4952551;29;20089;-76
2022/06/09 12:09:17;;;;;;;0.43;0.43;;;21.60;97.30;;;;;;4936666;29;20424;-75
2022/06/09 12:11:58;;;;;;;0.10;0.10;;;21.30;97.20;;;;;;4952491;29;20044;-77
2022/06/09 12:14:36;;;;;;;0.47;0.47;;;21.50;95.90;;;;;;4952051;29;20043;-75
2022/06/09 12:17:19;;;;;;;0.20;0.05;;;21.50;95.90;;;;;;4931922;29;20567;-77
2022/06/09 12:19:57;;;;;;;0.00;0.00;;;21.30;95.90;;;;;;4950059;29;20034;-76
2022/06/09 12:22:42;;;;;;;1.77;0.70;;;21.40;96.40;;;;;;4934610;29;20035;-76
2022/06/09 12:25:08;;;;;;;10.25;0.90;;;21.50;96.50;;;;;;4952101;29;20035;-76
2022/06/09 12:27:45;;;;;;;0.00;0.00;;;21.50;96.60;;;;;;4952424;28;20106;-77
2022/06/09 12:30:27;;;;;;;0.17;0.17;;;21.60;97.20;;;;;;4951356;29;20034;-76
2022/06/09 12:33:32;;;;;;;0.00;0.00;;;21.70;96.70;;;;;;4952108;29;20476;-76
2022/06/09 12:36:12;;;;;;;0.20;0.20;;;21.80;96.90;;;;;;4892311;29;20070;-76
2022/06/09 12:38:55;;;;;;;0.65;0.65;;;21.30;97.40;;;;;;4946612;29;20075;-75
2022/06/09 12:41:34;;;;;;;0.43;0.28;;;21.30;97.40;;;;;;4935556;29;20460;-76
2022/06/09 12:44:22;;;;;;;0.00;0.00;;;21.20;97.70;;;;;;4919356;29;20051;-76
2022/06/09 12:47:12;;;;;;;0.00;0.00;;;21.00;97.90;;;;;;4951844;29;20379;-76
2022/06/09 12:49:42;;;;;;;0.00;0.00;;;20.70;98.80;;;;;;4951040;28;20042;-76
2022/06/09 12:52:54;;;;;;;0.03;0.03;;;20.70;98.30;;;;;;4952108;29;20039;-76
2022/06/09 12:55:28;;;;;;;0.00;0.00;;;20.90;99.30;;;;;;4940338;29;20047;-77
2022/06/09 12:58:21;;;;;;;0.00;0.00;;;21.20;98.80;;;;;;4935645;29;20042;-76
2022/06/09 13:01:01;;;;;;;0.00;0.00;;;21.90;97.90;;;;;;4934528;29;20042;-75
2022/06/09 13:03:41;;;;;;;0.15;0.15;;;22.50;96.30;;;;;;4951432;29;20090;-75
2022/06/09 13:06:21;;;;;;;0.10;0.10;;;22.30;96.70;;;;;;4951672;29;20066;-76
2022/06/09 13:08:52;;;;;;;0.00;0.00;;;22.70;96.50;;;;;;4951138;29;20043;-76
2022/06/09 13:14:29;;;;;;;0.10;0.10;;;23.50;94.90;;;;;;4950160;29;20133;-76
2022/06/09 13:17:08;;;;;;;0.00;0.00;;;23.50;95.10;;;;;;4930946;29;20036;-77
2022/06/09 13:19:36;;;;;;;0.20;0.20;;;23.60;93.30;;;;;;4932184;29;20035;-76
2022/06/09 13:22:08;;;;;;;0.38;0.38;;;23.30;92.00;;;;;;4934500;29;20031;-76
2022/06/09 13:24:40;;;;;;;0.00;0.00;;;23.50;91.70;;;;;;4935020;29;20082;-76
2022/06/09 13:27:19;;;;;;;0.00;0.00;;;23.60;91.60;;;;;;4919158;29;20035;-76
2022/06/09 13:30:03;;;;;;;0.10;0.10;;;23.20;91.00;;;;;;4934192;29;20038;-76
2022/06/09 13:32:34;;;;;;;0.00;0.00;;;23.50;91.90;;;;;;4931027;28;20040;-75
2022/06/09 13:35:01;;;;;;;0.47;0.32;;;23.70;91.40;;;;;;4936439;29;20040;-76
2022/06/09 13:37:43;;;;;;;0.00;0.00;;;23.10;91.80;;;;;;4951036;28;20031;-76
2022/06/09 13:40:21;;;;;;;0.00;0.00;;;22.70;92.50;;;;;;4935606;29;20166;-77
2022/06/09 13:42:57;;;;;;;0.20;0.15;;;23.50;92.80;;;;;;4936230;29;20039;-77
2022/06/09 13:45:34;;;;;;;0.35;0.15;;;24.60;90.60;;;;;;4950270;28;20396;-74
2022/06/09 13:48:12;;;;;;;0.00;0.00;;;25.50;85.30;;;;;;4953576;28;20118;-75
2022/06/09 13:50:43;;;;;;;0.15;0.15;;;25.90;83.20;;;;;;4952619;28;20027;-75